sensor_id;sensor_type;location;lat;lon;timestamp;P1;durP1;ratioP1;P2;durP2;ratioP2
77798;SDS011;66989;50.426;15.352;2023-01-24T00:01:51;16.65;;;9.00;;
77798;SDS011;66989;50.426;15.352;2023-01-24T00:04:16;13.93;;;6.43;;
77798;SDS011;66989;50.426;15.352;2023-01-24T00:06:42;12.07;;;6.37;;
77798;SDS011;66989;50.426;15.352;2023-01-24T00:09:07;20.73;;;9.27;;
77798;SDS011;66989;50.426;15.352;2023-01-24T00:11:32;15.30;;;6.85;;
77798;SDS011;66989;50.426;15.352;2023-01-24T00:13:58;14.30;;;6.40;;
77798;SDS011;66989;50.426;15.352;2023-01-24T00:16:23;14.63;;;7.67;;
77798;SDS011;66989;50.426;15.352;2023-01-24T00:18:48;12.88;;;6.32;;
77798;SDS011;66989;50.426;15.352;2023-01-24T00:21:15;10.50;;;5.85;;
77798;SDS011;66989;50.426;15.352;2023-01-24T00:23:43;10.80;;;6.57;;
77798;SDS011;66989;50.426;15.352;2023-01-24T00:26:11;16.02;;;7.10;;
77798;SDS011;66989;50.426;15.352;2023-01-24T00:28:36;14.70;;;7.18;;
77798;SDS011;66989;50.426;15.352;2023-01-24T00:31:02;12.77;;;6.22;;
77798;SDS011;66989;50.426;15.352;2023-01-24T00:33:28;9.02;;;4.38;;
77798;SDS011;66989;50.426;15.352;2023-01-24T00:35:53;13.43;;;5.57;;
77798;SDS011;66989;50.426;15.352;2023-01-24T00:38:19;12.10;;;5.82;;
77798;SDS011;66989;50.426;15.352;2023-01-24T00:40:45;11.68;;;6.15;;
77798;SDS011;66989;50.426;15.352;2023-01-24T00:43:11;12.63;;;5.88;;
77798;SDS011;66989;50.426;15.352;2023-01-24T00:45:37;8.55;;;5.57;;
77798;SDS011;66989;50.426;15.352;2023-01-24T00:48:04;11.85;;;5.00;;
77798;SDS011;66989;50.426;15.352;2023-01-24T00:50:30;9.38;;;6.25;;
77798;SDS011;66989;50.426;15.352;2023-01-24T00:52:56;9.57;;;5.25;;
77798;SDS011;66989;50.426;15.352;2023-01-24T00:55:21;11.93;;;6.47;;
77798;SDS011;66989;50.426;15.352;2023-01-24T00:57:46;7.85;;;3.55;;
77798;SDS011;66989;50.426;15.352;2023-01-24T01:00:12;12.27;;;6.13;;
77798;SDS011;66989;50.426;15.352;2023-01-24T01:02:38;11.80;;;6.63;;
77798;SDS011;66989;50.426;15.352;2023-01-24T01:05:03;11.77;;;5.38;;
77798;SDS011;66989;50.426;15.352;2023-01-24T01:07:30;12.65;;;6.15;;
77798;SDS011;66989;50.426;15.352;2023-01-24T01:09:55;13.15;;;6.65;;
77798;SDS011;66989;50.426;15.352;2023-01-24T01:12:21;13.75;;;6.13;;
77798;SDS011;66989;50.426;15.352;2023-01-24T01:14:46;14.00;;;6.78;;
77798;SDS011;66989;50.426;15.352;2023-01-24T01:17:11;16.35;;;7.90;;
77798;SDS011;66989;50.426;15.352;2023-01-24T01:19:37;17.25;;;8.48;;
77798;SDS011;66989;50.426;15.352;2023-01-24T01:22:02;22.83;;;10.95;;
77798;SDS011;66989;50.426;15.352;2023-01-24T01:24:27;22.23;;;11.10;;
77798;SDS011;66989;50.426;15.352;2023-01-24T01:26:53;21.25;;;8.98;;
77798;SDS011;66989;50.426;15.352;2023-01-24T01:29:18;15.63;;;7.70;;
77798;SDS011;66989;50.426;15.352;2023-01-24T01:31:43;16.93;;;7.93;;
77798;SDS011;66989;50.426;15.352;2023-01-24T01:34:09;15.60;;;8.80;;
77798;SDS011;66989;50.426;15.352;2023-01-24T01:36:35;13.10;;;6.15;;
77798;SDS011;66989;50.426;15.352;2023-01-24T01:39:01;16.98;;;8.00;;
77798;SDS011;66989;50.426;15.352;2023-01-24T01:41:26;20.83;;;10.45;;
77798;SDS011;66989;50.426;15.352;2023-01-24T01:43:51;22.08;;;9.75;;
77798;SDS011;66989;50.426;15.352;2023-01-24T01:46:42;17.02;;;9.75;;
77798;SDS011;66989;50.426;15.352;2023-01-24T01:49:17;19.83;;;9.43;;
77798;SDS011;66989;50.426;15.352;2023-01-24T01:51:47;14.05;;;8.95;;
77798;SDS011;66989;50.426;15.352;2023-01-24T01:54:25;21.85;;;11.52;;
77798;SDS011;66989;50.426;15.352;2023-01-24T01:57:02;23.60;;;11.27;;
77798;SDS011;66989;50.426;15.352;2023-01-24T01:59:35;22.27;;;11.05;;
77798;SDS011;66989;50.426;15.352;2023-01-24T02:02:07;20.38;;;9.57;;
77798;SDS011;66989;50.426;15.352;2023-01-24T02:04:35;20.17;;;9.50;;
77798;SDS011;66989;50.426;15.352;2023-01-24T02:07:10;21.05;;;10.10;;
77798;SDS011;66989;50.426;15.352;2023-01-24T02:09:42;25.40;;;10.88;;
77798;SDS011;66989;50.426;15.352;2023-01-24T02:12:11;21.13;;;10.90;;
77798;SDS011;66989;50.426;15.352;2023-01-24T02:14:40;18.70;;;9.60;;
77798;SDS011;66989;50.426;15.352;2023-01-24T02:17:26;18.45;;;8.85;;
77798;SDS011;66989;50.426;15.352;2023-01-24T02:22:30;21.77;;;10.40;;
77798;SDS011;66989;50.426;15.352;2023-01-24T02:27:38;22.70;;;10.48;;
77798;SDS011;66989;50.426;15.352;2023-01-24T02:30:04;19.88;;;9.95;;
77798;SDS011;66989;50.426;15.352;2023-01-24T02:32:29;20.40;;;9.57;;
77798;SDS011;66989;50.426;15.352;2023-01-24T02:34:55;16.83;;;9.30;;
77798;SDS011;66989;50.426;15.352;2023-01-24T02:37:21;22.20;;;12.18;;
77798;SDS011;66989;50.426;15.352;2023-01-24T02:40:00;21.55;;;9.75;;
77798;SDS011;66989;50.426;15.352;2023-01-24T02:42:34;20.17;;;10.20;;
77798;SDS011;66989;50.426;15.352;2023-01-24T02:47:48;20.77;;;11.00;;
77798;SDS011;66989;50.426;15.352;2023-01-24T02:50:16;20.92;;;11.85;;
77798;SDS011;66989;50.426;15.352;2023-01-24T02:52:43;22.15;;;11.05;;
77798;SDS011;66989;50.426;15.352;2023-01-24T02:55:27;23.55;;;10.85;;
77798;SDS011;66989;50.426;15.352;2023-01-24T02:57:52;20.98;;;10.63;;
77798;SDS011;66989;50.426;15.352;2023-01-24T03:00:39;12.57;;;6.88;;
77798;SDS011;66989;50.426;15.352;2023-01-24T03:03:07;14.35;;;7.97;;
77798;SDS011;66989;50.426;15.352;2023-01-24T03:05:34;17.42;;;9.20;;
77798;SDS011;66989;50.426;15.352;2023-01-24T03:08:21;21.77;;;9.88;;
77798;SDS011;66989;50.426;15.352;2023-01-24T03:10:47;20.98;;;10.15;;
77798;SDS011;66989;50.426;15.352;2023-01-24T03:13:13;21.73;;;10.85;;
77798;SDS011;66989;50.426;15.352;2023-01-24T03:16:00;21.23;;;10.30;;
77798;SDS011;66989;50.426;15.352;2023-01-24T03:18:45;20.33;;;10.07;;
77798;SDS011;66989;50.426;15.352;2023-01-24T03:21:29;23.80;;;11.35;;
77798;SDS011;66989;50.426;15.352;2023-01-24T03:24:13;19.08;;;9.70;;
77798;SDS011;66989;50.426;15.352;2023-01-24T03:26:56;23.00;;;11.30;;
77798;SDS011;66989;50.426;15.352;2023-01-24T03:29:40;22.42;;;9.05;;
77798;SDS011;66989;50.426;15.352;2023-01-24T03:32:24;16.88;;;8.73;;
77798;SDS011;66989;50.426;15.352;2023-01-24T03:35:08;22.98;;;11.40;;
77798;SDS011;66989;50.426;15.352;2023-01-24T03:37:33;24.07;;;11.50;;
77798;SDS011;66989;50.426;15.352;2023-01-24T03:40:17;26.23;;;11.05;;
77798;SDS011;66989;50.426;15.352;2023-01-24T03:42:42;22.45;;;10.63;;
77798;SDS011;66989;50.426;15.352;2023-01-24T03:45:15;23.25;;;10.93;;
77798;SDS011;66989;50.426;15.352;2023-01-24T03:50:10;21.63;;;10.50;;
77798;SDS011;66989;50.426;15.352;2023-01-24T03:52:54;21.33;;;9.75;;
77798;SDS011;66989;50.426;15.352;2023-01-24T03:55:20;20.30;;;10.65;;
77798;SDS011;66989;50.426;15.352;2023-01-24T03:57:45;19.75;;;10.45;;
77798;SDS011;66989;50.426;15.352;2023-01-24T04:00:12;24.90;;;11.65;;
77798;SDS011;66989;50.426;15.352;2023-01-24T04:02:38;21.35;;;9.55;;
77798;SDS011;66989;50.426;15.352;2023-01-24T04:05:03;22.33;;;10.40;;
77798;SDS011;66989;50.426;15.352;2023-01-24T04:07:37;23.70;;;12.02;;
77798;SDS011;66989;50.426;15.352;2023-01-24T04:10:03;19.00;;;9.00;;
77798;SDS011;66989;50.426;15.352;2023-01-24T04:12:29;20.45;;;10.75;;
77798;SDS011;66989;50.426;15.352;2023-01-24T04:14:54;22.25;;;10.20;;
77798;SDS011;66989;50.426;15.352;2023-01-24T04:17:19;19.00;;;10.48;;
77798;SDS011;66989;50.426;15.352;2023-01-24T04:19:45;19.65;;;10.63;;
77798;SDS011;66989;50.426;15.352;2023-01-24T04:22:11;26.20;;;11.63;;
77798;SDS011;66989;50.426;15.352;2023-01-24T04:24:37;17.70;;;8.70;;
77798;SDS011;66989;50.426;15.352;2023-01-24T04:27:02;19.92;;;9.70;;
77798;SDS011;66989;50.426;15.352;2023-01-24T04:29:27;22.10;;;9.77;;
77798;SDS011;66989;50.426;15.352;2023-01-24T04:31:53;20.03;;;9.63;;
77798;SDS011;66989;50.426;15.352;2023-01-24T04:34:18;23.93;;;10.83;;
77798;SDS011;66989;50.426;15.352;2023-01-24T04:36:43;20.80;;;9.80;;
77798;SDS011;66989;50.426;15.352;2023-01-24T04:39:09;18.37;;;9.47;;
77798;SDS011;66989;50.426;15.352;2023-01-24T04:41:34;20.13;;;9.57;;
77798;SDS011;66989;50.426;15.352;2023-01-24T04:43:59;19.65;;;10.20;;
77798;SDS011;66989;50.426;15.352;2023-01-24T04:46:25;25.33;;;12.90;;
77798;SDS011;66989;50.426;15.352;2023-01-24T04:48:52;26.65;;;11.13;;
77798;SDS011;66989;50.426;15.352;2023-01-24T04:51:18;23.17;;;11.73;;
77798;SDS011;66989;50.426;15.352;2023-01-24T04:53:43;23.02;;;10.77;;
77798;SDS011;66989;50.426;15.352;2023-01-24T04:56:08;23.33;;;11.53;;
77798;SDS011;66989;50.426;15.352;2023-01-24T04:58:35;19.67;;;9.25;;
77798;SDS011;66989;50.426;15.352;2023-01-24T05:01:00;23.63;;;12.80;;
77798;SDS011;66989;50.426;15.352;2023-01-24T05:03:26;23.17;;;12.23;;
77798;SDS011;66989;50.426;15.352;2023-01-24T05:05:53;21.13;;;10.40;;
77798;SDS011;66989;50.426;15.352;2023-01-24T05:08:19;21.27;;;10.45;;
77798;SDS011;66989;50.426;15.352;2023-01-24T05:10:45;22.20;;;11.18;;
77798;SDS011;66989;50.426;15.352;2023-01-24T05:13:10;27.77;;;15.45;;
77798;SDS011;66989;50.426;15.352;2023-01-24T05:15:36;27.35;;;13.90;;
77798;SDS011;66989;50.426;15.352;2023-01-24T05:18:02;24.45;;;11.68;;
77798;SDS011;66989;50.426;15.352;2023-01-24T05:20:27;24.50;;;12.90;;
77798;SDS011;66989;50.426;15.352;2023-01-24T05:22:57;25.60;;;13.70;;
77798;SDS011;66989;50.426;15.352;2023-01-24T05:25:23;26.25;;;12.23;;
77798;SDS011;66989;50.426;15.352;2023-01-24T05:27:48;30.40;;;13.50;;
77798;SDS011;66989;50.426;15.352;2023-01-24T05:30:14;24.47;;;10.90;;
77798;SDS011;66989;50.426;15.352;2023-01-24T05:32:40;27.73;;;12.50;;
77798;SDS011;66989;50.426;15.352;2023-01-24T05:35:05;23.83;;;12.07;;
77798;SDS011;66989;50.426;15.352;2023-01-24T05:37:31;26.48;;;11.38;;
77798;SDS011;66989;50.426;15.352;2023-01-24T05:39:57;17.08;;;8.63;;
77798;SDS011;66989;50.426;15.352;2023-01-24T05:42:22;22.92;;;11.55;;
77798;SDS011;66989;50.426;15.352;2023-01-24T05:44:47;19.63;;;12.20;;
77798;SDS011;66989;50.426;15.352;2023-01-24T05:47:13;22.80;;;11.23;;
77798;SDS011;66989;50.426;15.352;2023-01-24T05:49:38;19.63;;;8.98;;
77798;SDS011;66989;50.426;15.352;2023-01-24T05:52:04;23.73;;;12.23;;
77798;SDS011;66989;50.426;15.352;2023-01-24T05:54:29;24.52;;;11.68;;
77798;SDS011;66989;50.426;15.352;2023-01-24T05:56:56;20.13;;;9.77;;
77798;SDS011;66989;50.426;15.352;2023-01-24T05:59:21;20.83;;;10.18;;
77798;SDS011;66989;50.426;15.352;2023-01-24T06:01:46;27.00;;;10.83;;
77798;SDS011;66989;50.426;15.352;2023-01-24T06:04:12;26.70;;;10.50;;
77798;SDS011;66989;50.426;15.352;2023-01-24T06:06:37;27.42;;;11.57;;
77798;SDS011;66989;50.426;15.352;2023-01-24T06:09:03;22.02;;;10.52;;
77798;SDS011;66989;50.426;15.352;2023-01-24T06:11:28;26.42;;;11.05;;
77798;SDS011;66989;50.426;15.352;2023-01-24T06:13:54;27.75;;;10.07;;
77798;SDS011;66989;50.426;15.352;2023-01-24T06:16:21;34.35;;;11.38;;
77798;SDS011;66989;50.426;15.352;2023-01-24T06:18:49;25.40;;;10.60;;
77798;SDS011;66989;50.426;15.352;2023-01-24T06:21:23;30.75;;;11.57;;
77798;SDS011;66989;50.426;15.352;2023-01-24T06:24:04;31.58;;;14.65;;
77798;SDS011;66989;50.426;15.352;2023-01-24T06:26:30;29.38;;;12.07;;
77798;SDS011;66989;50.426;15.352;2023-01-24T06:28:56;32.42;;;12.82;;
77798;SDS011;66989;50.426;15.352;2023-01-24T06:31:36;26.88;;;11.52;;
77798;SDS011;66989;50.426;15.352;2023-01-24T06:34:17;33.22;;;12.43;;
77798;SDS011;66989;50.426;15.352;2023-01-24T06:39:25;37.45;;;12.93;;
77798;SDS011;66989;50.426;15.352;2023-01-24T06:41:51;30.83;;;12.18;;
77798;SDS011;66989;50.426;15.352;2023-01-24T06:44:16;37.05;;;12.90;;
77798;SDS011;66989;50.426;15.352;2023-01-24T06:46:42;21.88;;;10.57;;
77798;SDS011;66989;50.426;15.352;2023-01-24T06:49:09;25.73;;;10.38;;
77798;SDS011;66989;50.426;15.352;2023-01-24T06:51:35;28.55;;;10.85;;
77798;SDS011;66989;50.426;15.352;2023-01-24T06:54:01;30.23;;;10.10;;
77798;SDS011;66989;50.426;15.352;2023-01-24T06:56:26;28.33;;;11.38;;
77798;SDS011;66989;50.426;15.352;2023-01-24T06:58:52;37.57;;;14.70;;
77798;SDS011;66989;50.426;15.352;2023-01-24T07:01:17;33.87;;;12.50;;
77798;SDS011;66989;50.426;15.352;2023-01-24T07:03:42;41.33;;;12.55;;
77798;SDS011;66989;50.426;15.352;2023-01-24T07:06:08;34.78;;;10.70;;
77798;SDS011;66989;50.426;15.352;2023-01-24T07:08:33;50.50;;;14.70;;
77798;SDS011;66989;50.426;15.352;2023-01-24T07:10:59;45.27;;;13.33;;
77798;SDS011;66989;50.426;15.352;2023-01-24T07:13:24;48.38;;;14.80;;
77798;SDS011;66989;50.426;15.352;2023-01-24T07:15:50;51.20;;;13.63;;
77798;SDS011;66989;50.426;15.352;2023-01-24T07:18:16;44.90;;;11.48;;
77798;SDS011;66989;50.426;15.352;2023-01-24T07:20:42;40.15;;;11.02;;
77798;SDS011;66989;50.426;15.352;2023-01-24T07:23:26;44.45;;;10.88;;
77798;SDS011;66989;50.426;15.352;2023-01-24T07:25:57;34.42;;;11.00;;
77798;SDS011;66989;50.426;15.352;2023-01-24T07:28:23;68.82;;;11.27;;
77798;SDS011;66989;50.426;15.352;2023-01-24T07:30:49;57.03;;;11.20;;
77798;SDS011;66989;50.426;15.352;2023-01-24T07:33:16;17.88;;;5.90;;
77798;SDS011;66989;50.426;15.352;2023-01-24T07:35:42;30.10;;;9.40;;
77798;SDS011;66989;50.426;15.352;2023-01-24T07:38:07;35.65;;;9.35;;
77798;SDS011;66989;50.426;15.352;2023-01-24T07:40:33;31.85;;;9.07;;
77798;SDS011;66989;50.426;15.352;2023-01-24T07:42:59;35.05;;;11.45;;
77798;SDS011;66989;50.426;15.352;2023-01-24T07:45:25;21.23;;;7.45;;
77798;SDS011;66989;50.426;15.352;2023-01-24T07:47:57;19.48;;;8.80;;
77798;SDS011;66989;50.426;15.352;2023-01-24T07:50:24;30.67;;;8.23;;
77798;SDS011;66989;50.426;15.352;2023-01-24T07:52:52;19.27;;;8.48;;
77798;SDS011;66989;50.426;15.352;2023-01-24T07:55:18;17.90;;;8.57;;
77798;SDS011;66989;50.426;15.352;2023-01-24T07:57:44;19.45;;;8.27;;
77798;SDS011;66989;50.426;15.352;2023-01-24T08:00:10;26.02;;;7.72;;
77798;SDS011;66989;50.426;15.352;2023-01-24T08:02:36;16.67;;;7.13;;
77798;SDS011;66989;50.426;15.352;2023-01-24T08:05:01;18.50;;;7.70;;
77798;SDS011;66989;50.426;15.352;2023-01-24T08:07:27;18.38;;;8.25;;
77798;SDS011;66989;50.426;15.352;2023-01-24T08:09:52;12.97;;;5.47;;
77798;SDS011;66989;50.426;15.352;2023-01-24T08:12:17;17.00;;;7.53;;
77798;SDS011;66989;50.426;15.352;2023-01-24T08:14:43;14.77;;;6.80;;
77798;SDS011;66989;50.426;15.352;2023-01-24T08:17:09;18.58;;;9.02;;
77798;SDS011;66989;50.426;15.352;2023-01-24T08:19:34;17.95;;;8.63;;
77798;SDS011;66989;50.426;15.352;2023-01-24T08:22:00;21.75;;;11.25;;
77798;SDS011;66989;50.426;15.352;2023-01-24T08:24:27;34.15;;;15.60;;
77798;SDS011;66989;50.426;15.352;2023-01-24T08:26:52;46.80;;;20.43;;
77798;SDS011;66989;50.426;15.352;2023-01-24T08:29:18;65.82;;;26.00;;
77798;SDS011;66989;50.426;15.352;2023-01-24T08:31:43;65.90;;;24.30;;
77798;SDS011;66989;50.426;15.352;2023-01-24T08:34:09;53.83;;;23.23;;
77798;SDS011;66989;50.426;15.352;2023-01-24T08:36:35;50.42;;;23.52;;
77798;SDS011;66989;50.426;15.352;2023-01-24T08:39:00;52.67;;;23.33;;
77798;SDS011;66989;50.426;15.352;2023-01-24T08:41:27;55.38;;;25.42;;
77798;SDS011;66989;50.426;15.352;2023-01-24T08:43:53;33.45;;;16.60;;
77798;SDS011;66989;50.426;15.352;2023-01-24T08:46:18;35.33;;;18.88;;
77798;SDS011;66989;50.426;15.352;2023-01-24T08:48:44;39.50;;;20.75;;
77798;SDS011;66989;50.426;15.352;2023-01-24T08:51:09;28.67;;;15.47;;
77798;SDS011;66989;50.426;15.352;2023-01-24T08:53:35;22.17;;;12.90;;
77798;SDS011;66989;50.426;15.352;2023-01-24T08:56:00;22.25;;;12.73;;
77798;SDS011;66989;50.426;15.352;2023-01-24T08:58:25;18.85;;;12.82;;
77798;SDS011;66989;50.426;15.352;2023-01-24T09:00:51;29.02;;;19.55;;
77798;SDS011;66989;50.426;15.352;2023-01-24T09:03:17;23.73;;;17.33;;
77798;SDS011;66989;50.426;15.352;2023-01-24T09:05:44;17.45;;;12.65;;
77798;SDS011;66989;50.426;15.352;2023-01-24T09:08:10;14.65;;;10.32;;
77798;SDS011;66989;50.426;15.352;2023-01-24T09:10:36;27.85;;;18.90;;
77798;SDS011;66989;50.426;15.352;2023-01-24T09:13:03;24.35;;;16.10;;
77798;SDS011;66989;50.426;15.352;2023-01-24T09:15:28;15.93;;;11.88;;
77798;SDS011;66989;50.426;15.352;2023-01-24T09:17:54;16.23;;;10.88;;
77798;SDS011;66989;50.426;15.352;2023-01-24T09:20:20;13.00;;;9.45;;
77798;SDS011;66989;50.426;15.352;2023-01-24T09:22:46;14.98;;;9.95;;
77798;SDS011;66989;50.426;15.352;2023-01-24T09:25:11;17.33;;;9.80;;
77798;SDS011;66989;50.426;15.352;2023-01-24T09:27:37;14.30;;;8.30;;
77798;SDS011;66989;50.426;15.352;2023-01-24T09:30:03;15.23;;;8.40;;
77798;SDS011;66989;50.426;15.352;2023-01-24T09:32:32;13.63;;;7.78;;
77798;SDS011;66989;50.426;15.352;2023-01-24T09:34:57;11.10;;;6.07;;
77798;SDS011;66989;50.426;15.352;2023-01-24T09:37:23;10.77;;;6.07;;
77798;SDS011;66989;50.426;15.352;2023-01-24T09:39:48;13.65;;;7.30;;
77798;SDS011;66989;50.426;15.352;2023-01-24T09:42:18;19.85;;;10.93;;
77798;SDS011;66989;50.426;15.352;2023-01-24T09:53:08;20.00;;;10.68;;
77798;SDS011;66989;50.426;15.352;2023-01-24T09:55:42;17.08;;;8.90;;
77798;SDS011;66989;50.426;15.352;2023-01-24T10:01:03;12.50;;;6.45;;
77798;SDS011;66989;50.426;15.352;2023-01-24T10:03:34;15.82;;;8.52;;
77798;SDS011;66989;50.426;15.352;2023-01-24T10:06:19;13.80;;;8.30;;
77798;SDS011;66989;50.426;15.352;2023-01-24T10:08:51;17.05;;;7.65;;
77798;SDS011;66989;50.426;15.352;2023-01-24T10:25:11;15.27;;;7.82;;
77798;SDS011;66989;50.426;15.352;2023-01-24T10:27:42;13.02;;;7.72;;
77798;SDS011;66989;50.426;15.352;2023-01-24T10:30:16;14.30;;;7.88;;
77798;SDS011;66989;50.426;15.352;2023-01-24T10:32:46;18.15;;;10.18;;
77798;SDS011;66989;50.426;15.352;2023-01-24T10:35:20;18.10;;;9.55;;
77798;SDS011;66989;50.426;15.352;2023-01-24T10:37:50;17.95;;;10.02;;
77798;SDS011;66989;50.426;15.352;2023-01-24T10:40:21;17.52;;;9.15;;
77798;SDS011;66989;50.426;15.352;2023-01-24T10:42:49;18.33;;;8.52;;
77798;SDS011;66989;50.426;15.352;2023-01-24T10:48:04;15.35;;;8.32;;
77798;SDS011;66989;50.426;15.352;2023-01-24T10:50:43;14.80;;;8.20;;
77798;SDS011;66989;50.426;15.352;2023-01-24T10:53:21;13.25;;;7.25;;
77798;SDS011;66989;50.426;15.352;2023-01-24T10:58:25;14.43;;;7.95;;
77798;SDS011;66989;50.426;15.352;2023-01-24T11:01:08;14.07;;;8.55;;
77798;SDS011;66989;50.426;15.352;2023-01-24T11:03:42;13.02;;;7.38;;
77798;SDS011;66989;50.426;15.352;2023-01-24T11:08:53;17.83;;;7.90;;
77798;SDS011;66989;50.426;15.352;2023-01-24T11:11:22;14.07;;;7.45;;
77798;SDS011;66989;50.426;15.352;2023-01-24T11:13:53;14.57;;;8.13;;
77798;SDS011;66989;50.426;15.352;2023-01-24T11:16:29;12.30;;;8.18;;
77798;SDS011;66989;50.426;15.352;2023-01-24T11:19:00;18.23;;;9.23;;
77798;SDS011;66989;50.426;15.352;2023-01-24T11:21:28;22.30;;;13.38;;
77798;SDS011;66989;50.426;15.352;2023-01-24T11:26:31;18.00;;;10.77;;
77798;SDS011;66989;50.426;15.352;2023-01-24T11:29:01;20.98;;;12.27;;
77798;SDS011;66989;50.426;15.352;2023-01-24T11:31:42;25.10;;;15.48;;
77798;SDS011;66989;50.426;15.352;2023-01-24T11:34:24;44.45;;;21.92;;
77798;SDS011;66989;50.426;15.352;2023-01-24T11:39:43;49.28;;;20.50;;
77798;SDS011;66989;50.426;15.352;2023-01-24T11:53:03;52.43;;;19.83;;
77798;SDS011;66989;50.426;15.352;2023-01-24T11:58:59;32.15;;;17.00;;
77798;SDS011;66989;50.426;15.352;2023-01-24T12:07:30;22.58;;;13.15;;
77798;SDS011;66989;50.426;15.352;2023-01-24T12:13:04;27.10;;;17.20;;
77798;SDS011;66989;50.426;15.352;2023-01-24T12:15:55;18.25;;;11.07;;
77798;SDS011;66989;50.426;15.352;2023-01-24T12:21:07;20.15;;;11.25;;
77798;SDS011;66989;50.426;15.352;2023-01-24T12:23:39;19.45;;;12.43;;
77798;SDS011;66989;50.426;15.352;2023-01-24T12:26:16;20.65;;;12.27;;
77798;SDS011;66989;50.426;15.352;2023-01-24T12:28:55;19.45;;;11.25;;
77798;SDS011;66989;50.426;15.352;2023-01-24T12:37:20;16.42;;;10.00;;
77798;SDS011;66989;50.426;15.352;2023-01-24T12:40:07;18.65;;;13.35;;
77798;SDS011;66989;50.426;15.352;2023-01-24T12:45:24;16.80;;;9.60;;
77798;SDS011;66989;50.426;15.352;2023-01-24T12:53:16;17.35;;;12.50;;
77798;SDS011;66989;50.426;15.352;2023-01-24T12:58:54;22.77;;;13.98;;
77798;SDS011;66989;50.426;15.352;2023-01-24T13:11:57;21.98;;;13.63;;
77798;SDS011;66989;50.426;15.352;2023-01-24T13:14:29;19.45;;;13.20;;
77798;SDS011;66989;50.426;15.352;2023-01-24T13:17:19;18.38;;;12.68;;
77798;SDS011;66989;50.426;15.352;2023-01-24T13:22:54;22.10;;;13.27;;
77798;SDS011;66989;50.426;15.352;2023-01-24T13:31:33;25.00;;;14.90;;
77798;SDS011;66989;50.426;15.352;2023-01-24T13:34:01;21.05;;;10.90;;
77798;SDS011;66989;50.426;15.352;2023-01-24T13:36:31;22.20;;;12.25;;
77798;SDS011;66989;50.426;15.352;2023-01-24T13:38:58;24.00;;;13.13;;
77798;SDS011;66989;50.426;15.352;2023-01-24T13:57:48;72.80;;;32.28;;
77798;SDS011;66989;50.426;15.352;2023-01-24T14:00:47;69.35;;;31.88;;
77798;SDS011;66989;50.426;15.352;2023-01-24T14:03:27;56.80;;;27.30;;
77798;SDS011;66989;50.426;15.352;2023-01-24T14:10:50;34.00;;;19.73;;
77798;SDS011;66989;50.426;15.352;2023-01-24T14:18:56;27.38;;;13.48;;
77798;SDS011;66989;50.426;15.352;2023-01-24T14:29:47;31.58;;;15.57;;
77798;SDS011;66989;50.426;15.352;2023-01-24T14:37:34;29.92;;;17.10;;
77798;SDS011;66989;50.426;15.352;2023-01-24T14:40:10;28.00;;;14.60;;
77798;SDS011;66989;50.426;15.352;2023-01-24T14:42:36;26.15;;;13.55;;
77798;SDS011;66989;50.426;15.352;2023-01-24T14:45:01;21.58;;;12.23;;
77798;SDS011;66989;50.426;15.352;2023-01-24T14:47:27;20.55;;;11.50;;
77798;SDS011;66989;50.426;15.352;2023-01-24T14:49:56;23.65;;;11.57;;
77798;SDS011;66989;50.426;15.352;2023-01-24T14:52:32;23.17;;;12.57;;
77798;SDS011;66989;50.426;15.352;2023-01-24T14:54:58;21.48;;;11.70;;
77798;SDS011;66989;50.426;15.352;2023-01-24T14:57:26;27.77;;;13.18;;
77798;SDS011;66989;50.426;15.352;2023-01-24T15:00:00;25.45;;;13.48;;
77798;SDS011;66989;50.426;15.352;2023-01-24T15:02:27;22.33;;;10.23;;
77798;SDS011;66989;50.426;15.352;2023-01-24T15:04:53;24.40;;;13.02;;
77798;SDS011;66989;50.426;15.352;2023-01-24T15:07:18;20.90;;;11.80;;
77798;SDS011;66989;50.426;15.352;2023-01-24T15:09:44;19.92;;;10.95;;
77798;SDS011;66989;50.426;15.352;2023-01-24T15:12:13;19.67;;;10.57;;
77798;SDS011;66989;50.426;15.352;2023-01-24T15:15:00;26.35;;;13.65;;
77798;SDS011;66989;50.426;15.352;2023-01-24T15:17:29;29.25;;;16.13;;
77798;SDS011;66989;50.426;15.352;2023-01-24T15:20:00;27.50;;;14.52;;
77798;SDS011;66989;50.426;15.352;2023-01-24T15:22:34;21.77;;;10.48;;
77798;SDS011;66989;50.426;15.352;2023-01-24T15:25:03;27.27;;;13.45;;
77798;SDS011;66989;50.426;15.352;2023-01-24T15:27:42;25.60;;;12.32;;
77798;SDS011;66989;50.426;15.352;2023-01-24T15:32:40;26.35;;;13.23;;
77798;SDS011;66989;50.426;15.352;2023-01-24T15:35:35;30.98;;;14.93;;
77798;SDS011;66989;50.426;15.352;2023-01-24T15:38:23;28.65;;;14.27;;
77798;SDS011;66989;50.426;15.352;2023-01-24T15:40:55;28.35;;;12.88;;
77798;SDS011;66989;50.426;15.352;2023-01-24T15:46:23;31.65;;;15.68;;
77798;SDS011;66989;50.426;15.352;2023-01-24T15:49:28;23.00;;;12.13;;
77798;SDS011;66989;50.426;15.352;2023-01-24T15:51:58;23.67;;;11.63;;
77798;SDS011;66989;50.426;15.352;2023-01-24T15:54:44;21.30;;;12.00;;
77798;SDS011;66989;50.426;15.352;2023-01-24T15:57:29;23.67;;;12.68;;
77798;SDS011;66989;50.426;15.352;2023-01-24T16:00:01;28.00;;;12.63;;
77798;SDS011;66989;50.426;15.352;2023-01-24T16:02:35;18.52;;;10.32;;
77798;SDS011;66989;50.426;15.352;2023-01-24T16:05:01;24.50;;;11.57;;
77798;SDS011;66989;50.426;15.352;2023-01-24T16:07:26;17.95;;;10.05;;
77798;SDS011;66989;50.426;15.352;2023-01-24T16:09:52;20.92;;;10.80;;
77798;SDS011;66989;50.426;15.352;2023-01-24T16:12:20;17.25;;;8.63;;
77798;SDS011;66989;50.426;15.352;2023-01-24T16:14:49;23.40;;;11.70;;
77798;SDS011;66989;50.426;15.352;2023-01-24T16:17:17;24.25;;;11.30;;
77798;SDS011;66989;50.426;15.352;2023-01-24T16:19:44;16.90;;;8.30;;
77798;SDS011;66989;50.426;15.352;2023-01-24T16:22:10;17.00;;;7.38;;
77798;SDS011;66989;50.426;15.352;2023-01-24T16:24:35;12.73;;;6.70;;
77798;SDS011;66989;50.426;15.352;2023-01-24T16:27:00;15.37;;;6.63;;
77798;SDS011;66989;50.426;15.352;2023-01-24T16:29:27;13.20;;;7.03;;
77798;SDS011;66989;50.426;15.352;2023-01-24T16:31:54;11.45;;;6.90;;
77798;SDS011;66989;50.426;15.352;2023-01-24T16:34:20;11.18;;;6.40;;
77798;SDS011;66989;50.426;15.352;2023-01-24T16:36:46;13.75;;;7.38;;
77798;SDS011;66989;50.426;15.352;2023-01-24T16:39:15;10.48;;;6.32;;
77798;SDS011;66989;50.426;15.352;2023-01-24T16:41:43;13.00;;;6.88;;
77798;SDS011;66989;50.426;15.352;2023-01-24T16:44:09;15.55;;;6.85;;
77798;SDS011;66989;50.426;15.352;2023-01-24T16:46:34;15.23;;;6.97;;
77798;SDS011;66989;50.426;15.352;2023-01-24T16:49:00;11.48;;;6.68;;
77798;SDS011;66989;50.426;15.352;2023-01-24T16:51:26;12.27;;;7.20;;
77798;SDS011;66989;50.426;15.352;2023-01-24T16:53:55;12.57;;;7.13;;
77798;SDS011;66989;50.426;15.352;2023-01-24T16:56:21;11.73;;;6.60;;
77798;SDS011;66989;50.426;15.352;2023-01-24T16:58:47;16.10;;;7.20;;
77798;SDS011;66989;50.426;15.352;2023-01-24T17:01:12;13.77;;;6.53;;
77798;SDS011;66989;50.426;15.352;2023-01-24T17:03:38;14.30;;;6.85;;
77798;SDS011;66989;50.426;15.352;2023-01-24T17:06:04;15.73;;;7.18;;